sensor_id;sensor_type;location;lat;lon;timestamp;pressure;altitude;pressure_sealevel;temperature;humidity
48680;BME280;34475;51.658;5.634;2022-11-15T00:00:00;100620;;;8.3;100.0
48680;BME280;34475;51.658;5.634;2022-11-15T00:01:00;100630;;;8.3;100.0
48680;BME280;34475;51.658;5.634;2022-11-15T00:02:00;100630;;;8.3;100.0
48680;BME280;34475;51.658;5.634;2022-11-15T00:03:00;100620;;;8.3;100.0
48680;BME280;34475;51.658;5.634;2022-11-15T00:04:00;100620;;;8.3;100.0
48680;BME280;34475;51.658;5.634;2022-11-15T00:05:00;100620;;;8.4;100.0
48680;BME280;34475;51.658;5.634;2022-11-15T00:06:01;100620;;;8.4;100.0
48680;BME280;34475;51.658;5.634;2022-11-15T00:07:00;100610;;;8.3;100.0
48680;BME280;34475;51.658;5.634;2022-11-15T00:08:00;100610;;;8.3;100.0
48680;BME280;34475;51.658;5.634;2022-11-15T00:09:00;100610;;;8.4;100.0
48680;BME280;34475;51.658;5.634;2022-11-15T00:10:00;100610;;;8.4;100.0
48680;BME280;34475;51.658;5.634;2022-11-15T00:11:00;100610;;;8.5;100.0
48680;BME280;34475;51.658;5.634;2022-11-15T00:12:00;100610;;;8.5;100.0
48680;BME280;34475;51.658;5.634;2022-11-15T00:13:00;100610;;;8.5;100.0
48680;BME280;34475;51.658;5.634;2022-11-15T00:14:00;100610;;;8.5;100.0
48680;BME280;34475;51.658;5.634;2022-11-15T00:15:00;100610;;;8.6;100.0
48680;BME280;34475;51.658;5.634;2022-11-15T00:16:00;100610;;;8.6;100.0
48680;BME280;34475;51.658;5.634;2022-11-15T00:17:00;100610;;;8.7;100.0
48680;BME280;34475;51.658;5.634;2022-11-15T00:18:00;100610;;;8.7;100.0
48680;BME280;34475;51.658;5.634;2022-11-15T00:19:00;100620;;;8.5;100.0
48680;BME280;34475;51.658;5.634;2022-11-15T00:20:00;100620;;;8.5;100.0
48680;BME280;34475;51.658;5.634;2022-11-15T00:21:04;100610;;;8.6;100.0
48680;BME280;34475;51.658;5.634;2022-11-15T00:22:00;100610;;;8.6;100.0
48680;BME280;34475;51.658;5.634;2022-11-15T00:23:00;100610;;;8.5;100.0
48680;BME280;34475;51.658;5.634;2022-11-15T00:24:00;100610;;;8.5;100.0
48680;BME280;34475;51.658;5.634;2022-11-15T00:25:00;100610;;;8.6;100.0
48680;BME280;34475;51.658;5.634;2022-11-15T00:26:00;100610;;;8.6;100.0
48680;BME280;34475;51.658;5.634;2022-11-15T00:27:00;100620;;;8.6;100.0
48680;BME280;34475;51.658;5.634;2022-11-15T00:28:00;100620;;;8.6;100.0
48680;BME280;34475;51.658;5.634;2022-11-15T00:29:00;100610;;;8.6;100.0
48680;BME280;34475;51.658;5.634;2022-11-15T00:30:00;100610;;;8.6;100.0
48680;BME280;34475;51.658;5.634;2022-11-15T00:31:01;100620;;;8.7;100.0
48680;BME280;34475;51.658;5.634;2022-11-15T00:32:00;100620;;;8.7;100.0
48680;BME280;34475;51.658;5.634;2022-11-15T00:33:02;100610;;;8.7;100.0
48680;BME280;34475;51.658;5.634;2022-11-15T00:34:00;100610;;;8.7;100.0
48680;BME280;34475;51.658;5.634;2022-11-15T00:35:00;100610;;;8.6;100.0
48680;BME280;34475;51.658;5.634;2022-11-15T00:36:00;100610;;;8.6;100.0
48680;BME280;34475;51.658;5.634;2022-11-15T00:37:00;100610;;;8.8;100.0
48680;BME280;34475;51.658;5.634;2022-11-15T00:38:00;100610;;;8.8;100.0
48680;BME280;34475;51.658;5.634;2022-11-15T00:39:00;100600;;;8.7;100.0
48680;BME280;34475;51.658;5.634;2022-11-15T00:40:00;100600;;;8.7;100.0
48680;BME280;34475;51.658;5.634;2022-11-15T00:41:00;100600;;;8.9;100.0
48680;BME280;34475;51.658;5.634;2022-11-15T00:42:00;100600;;;8.9;100.0
48680;BME280;34475;51.658;5.634;2022-11-15T00:43:00;100610;;;8.9;100.0
48680;BME280;34475;51.658;5.634;2022-11-15T00:44:00;100610;;;8.9;100.0
48680;BME280;34475;51.658;5.634;2022-11-15T00:45:00;100610;;;8.9;100.0
48680;BME280;34475;51.658;5.634;2022-11-15T00:46:00;100610;;;8.9;100.0
48680;BME280;34475;51.658;5.634;2022-11-15T00:47:00;100600;;;8.9;100.0
48680;BME280;34475;51.658;5.634;2022-11-15T00:48:00;100600;;;8.9;100.0
48680;BME280;34475;51.658;5.634;2022-11-15T00:49:00;100600;;;8.9;100.0
48680;BME280;34475;51.658;5.634;2022-11-15T00:50:00;100600;;;8.9;100.0
48680;BME280;34475;51.658;5.634;2022-11-15T00:51:00;100600;;;8.9;100.0
48680;BME280;34475;51.658;5.634;2022-11-15T00:52:00;100600;;;8.9;100.0
48680;BME280;34475;51.658;5.634;2022-11-15T00:53:00;100600;;;8.9;100.0
48680;BME280;34475;51.658;5.634;2022-11-15T00:54:00;100600;;;8.9;100.0
48680;BME280;34475;51.658;5.634;2022-11-15T00:55:00;100590;;;9.0;100.0
48680;BME280;34475;51.658;5.634;2022-11-15T00:56:00;100590;;;9.0;100.0
48680;BME280;34475;51.658;5.634;2022-11-15T00:57:00;100590;;;9.1;100.0
48680;BME280;34475;51.658;5.634;2022-11-15T00:58:00;100590;;;9.1;100.0
48680;BME280;34475;51.658;5.634;2022-11-15T00:59:00;100590;;;9.1;100.0
48680;BME280;34475;51.658;5.634;2022-11-15T01:00:00;100590;;;9.1;100.0
48680;BME280;34475;51.658;5.634;2022-11-15T01:01:07;100590;;;9.2;100.0
48680;BME280;34475;51.658;5.634;2022-11-15T01:02:00;100590;;;9.2;100.0
48680;BME280;34475;51.658;5.634;2022-11-15T01:03:00;100590;;;9.1;100.0
48680;BME280;34475;51.658;5.634;2022-11-15T01:04:00;100590;;;9.1;100.0
48680;BME280;34475;51.658;5.634;2022-11-15T01:05:00;100590;;;9.3;100.0
48680;BME280;34475;51.658;5.634;2022-11-15T01:06:00;100590;;;9.3;100.0
48680;BME280;34475;51.658;5.634;2022-11-15T01:07:00;100590;;;9.2;100.0
48680;BME280;34475;51.658;5.634;2022-11-15T01:08:00;100590;;;9.2;100.0
48680;BME280;34475;51.658;5.634;2022-11-15T01:09:00;100580;;;9.4;100.0
48680;BME280;34475;51.658;5.634;2022-11-15T01:10:00;100580;;;9.4;100.0
48680;BME280;34475;51.658;5.634;2022-11-15T01:11:00;100580;;;9.5;100.0
48680;BME280;34475;51.658;5.634;2022-11-15T01:12:00;100580;;;9.5;100.0
48680;BME280;34475;51.658;5.634;2022-11-15T01:13:00;100580;;;9.4;100.0
48680;BME280;34475;51.658;5.634;2022-11-15T01:14:00;100580;;;9.4;100.0
48680;BME280;34475;51.658;5.634;2022-11-15T01:15:00;100580;;;9.5;100.0
48680;BME280;34475;51.658;5.634;2022-11-15T01:16:08;100580;;;9.5;100.0
48680;BME280;34475;51.658;5.634;2022-11-15T01:17:00;100580;;;9.6;100.0
48680;BME280;34475;51.658;5.634;2022-11-15T01:18:00;100580;;;9.6;100.0
48680;BME280;34475;51.658;5.634;2022-11-15T01:19:00;100580;;;9.6;100.0
48680;BME280;34475;51.658;5.634;2022-11-15T01:20:00;100580;;;9.6;100.0
48680;BME280;34475;51.658;5.634;2022-11-15T01:21:03;100580;;;9.6;100.0
48680;BME280;34475;51.658;5.634;2022-11-15T01:22:00;100580;;;9.6;100.0
48680;BME280;34475;51.658;5.634;2022-11-15T01:23:00;100580;;;9.6;100.0
48680;BME280;34475;51.658;5.634;2022-11-15T01:24:00;100580;;;9.6;100.0
48680;BME280;34475;51.658;5.634;2022-11-15T01:25:00;100570;;;9.6;100.0
48680;BME280;34475;51.658;5.634;2022-11-15T01:26:00;100570;;;9.6;100.0
48680;BME280;34475;51.658;5.634;2022-11-15T01:27:00;100570;;;9.6;100.0
48680;BME280;34475;51.658;5.634;2022-11-15T01:28:00;100570;;;9.6;100.0
48680;BME280;34475;51.658;5.634;2022-11-15T01:29:00;100570;;;9.7;100.0
48680;BME280;34475;51.658;5.634;2022-11-15T01:30:00;100570;;;9.7;100.0
48680;BME280;34475;51.658;5.634;2022-11-15T01:31:01;100560;;;9.8;100.0
48680;BME280;34475;51.658;5.634;2022-11-15T01:32:00;100560;;;9.8;100.0
48680;BME280;34475;51.658;5.634;2022-11-15T01:33:00;100560;;;9.9;100.0
48680;BME280;34475;51.658;5.634;2022-11-15T01:34:00;100560;;;9.9;100.0
48680;BME280;34475;51.658;5.634;2022-11-15T01:35:00;100560;;;9.8;100.0
48680;BME280;34475;51.658;5.634;2022-11-15T01:36:03;100560;;;9.8;100.0
48680;BME280;34475;51.658;5.634;2022-11-15T01:37:00;100560;;;9.8;100.0
48680;BME280;34475;51.658;5.634;2022-11-15T01:38:00;100560;;;9.8;100.0
48680;BME280;34475;51.658;5.634;2022-11-15T01:39:00;100560;;;9.7;100.0
48680;BME280;34475;51.658;5.634;2022-11-15T01:40:00;100560;;;9.7;100.0
48680;BME280;34475;51.658;5.634;2022-11-15T01:41:00;100550;;;9.8;100.0
48680;BME280;34475;51.658;5.634;2022-11-15T01:42:00;100550;;;9.8;100.0
48680;BME280;34475;51.658;5.634;2022-11-15T01:43:17;100550;;;9.7;100.0
48680;BME280;34475;51.658;5.634;2022-11-15T01:45:00;100550;;;9.8;100.0
48680;BME280;34475;51.658;5.634;2022-11-15T01:47:02;100550;;;9.8;100.0
48680;BME280;34475;51.658;5.634;2022-11-15T01:48:00;100550;;;9.8;100.0
48680;BME280;34475;51.658;5.634;2022-11-15T01:49:02;100550;;;9.9;100.0
48680;BME280;34475;51.658;5.634;2022-11-15T01:50:02;100550;;;9.9;100.0
48680;BME280;34475;51.658;5.634;2022-11-15T01:51:00;100550;;;9.8;100.0
48680;BME280;34475;51.658;5.634;2022-11-15T01:52:00;100550;;;9.8;100.0
48680;BME280;34475;51.658;5.634;2022-11-15T01:53:00;100550;;;9.8;100.0
48680;BME280;34475;51.658;5.634;2022-11-15T01:54:02;100550;;;9.8;100.0
48680;BME280;34475;51.658;5.634;2022-11-15T01:55:08;100550;;;9.8;100.0
48680;BME280;34475;51.658;5.634;2022-11-15T01:56:01;100550;;;9.8;100.0
48680;BME280;34475;51.658;5.634;2022-11-15T01:57:01;100550;;;9.8;100.0
48680;BME280;34475;51.658;5.634;2022-11-15T01:58:00;100550;;;9.8;100.0
48680;BME280;34475;51.658;5.634;2022-11-15T01:59:00;100550;;;9.9;100.0
48680;BME280;34475;51.658;5.634;2022-11-15T02:00:00;100550;;;9.9;100.0
48680;BME280;34475;51.658;5.634;2022-11-15T02:01:00;100550;;;9.8;100.0
48680;BME280;34475;51.658;5.634;2022-11-15T02:02:00;100550;;;9.8;100.0
48680;BME280;34475;51.658;5.634;2022-11-15T02:03:00;100560;;;9.9;100.0
48680;BME280;34475;51.658;5.634;2022-11-15T02:04:02;100560;;;9.9;100.0
48680;BME280;34475;51.658;5.634;2022-11-15T02:05:00;100550;;;9.8;100.0
48680;BME280;34475;51.658;5.634;2022-11-15T02:06:00;100550;;;9.8;100.0
48680;BME280;34475;51.658;5.634;2022-11-15T02:07:00;100550;;;9.8;100.0
48680;BME280;34475;51.658;5.634;2022-11-15T02:08:00;100550;;;9.8;100.0
48680;BME280;34475;51.658;5.634;2022-11-15T02:09:00;100550;;;9.9;100.0
48680;BME280;34475;51.658;5.634;2022-11-15T02:10:02;100550;;;9.9;100.0
48680;BME280;34475;51.658;5.634;2022-11-15T02:11:00;100550;;;9.9;100.0
48680;BME280;34475;51.658;5.634;2022-11-15T02:12:00;100550;;;9.9;100.0
48680;BME280;34475;51.658;5.634;2022-11-15T02:13:00;100550;;;9.8;100.0
48680;BME280;34475;51.658;5.634;2022-11-15T02:14:00;100550;;;9.8;100.0
48680;BME280;34475;51.658;5.634;2022-11-15T02:15:00;100550;;;9.9;100.0
48680;BME280;34475;51.658;5.634;2022-11-15T02:18:04;100550;;;9.9;100.0
48680;BME280;34475;51.658;5.634;2022-11-15T02:19:02;100540;;;10.0;100.0
48680;BME280;34475;51.658;5.634;2022-11-15T02:20:33;100540;;;10.0;100.0
48680;BME280;34475;51.658;5.634;2022-11-15T02:21:10;100530;;;10.0;100.0
48680;BME280;34475;51.658;5.634;2022-11-15T02:23:13;100530;;;9.9;100.0
48680;BME280;34475;51.658;5.634;2022-11-15T02:24:06;100530;;;9.9;100.0
48680;BME280;34475;51.658;5.634;2022-11-15T02:28:16;100530;;;10.0;100.0
48680;BME280;34475;51.658;5.634;2022-11-15T02:29:03;100530;;;10.1;100.0
48680;BME280;34475;51.658;5.634;2022-11-15T02:31:03;100520;;;10.1;100.0
48680;BME280;34475;51.658;5.634;2022-11-15T02:32:03;100520;;;10.1;100.0
48680;BME280;34475;51.658;5.634;2022-11-15T02:33:20;100520;;;10.1;100.0
48680;BME280;34475;51.658;5.634;2022-11-15T02:35:01;100520;;;10.2;100.0
48680;BME280;34475;51.658;5.634;2022-11-15T02:36:02;100520;;;10.2;100.0
48680;BME280;34475;51.658;5.634;2022-11-15T02:37:03;100520;;;10.2;100.0
48680;BME280;34475;51.658;5.634;2022-11-15T02:38:04;100520;;;10.2;100.0
48680;BME280;34475;51.658;5.634;2022-11-15T02:39:02;100520;;;10.1;100.0
48680;BME280;34475;51.658;5.634;2022-11-15T02:41:02;100520;;;10.2;100.0
48680;BME280;34475;51.658;5.634;2022-11-15T02:42:01;100520;;;10.2;100.0
48680;BME280;34475;51.658;5.634;2022-11-15T02:43:01;100520;;;10.1;100.0
48680;BME280;34475;51.658;5.634;2022-11-15T02:44:01;100520;;;10.1;100.0
48680;BME280;34475;51.658;5.634;2022-11-15T02:45:01;100520;;;10.2;100.0
48680;BME280;34475;51.658;5.634;2022-11-15T02:46:02;100520;;;10.2;100.0
48680;BME280;34475;51.658;5.634;2022-11-15T02:47:01;100520;;;10.2;100.0
48680;BME280;34475;51.658;5.634;2022-11-15T02:48:00;100520;;;10.2;100.0
48680;BME280;34475;51.658;5.634;2022-11-15T02:49:00;100520;;;10.3;100.0
48680;BME280;34475;51.658;5.634;2022-11-15T02:50:02;100520;;;10.3;100.0
48680;BME280;34475;51.658;5.634;2022-11-15T02:51:00;100510;;;10.3;100.0
48680;BME280;34475;51.658;5.634;2022-11-15T02:52:00;100510;;;10.3;100.0
48680;BME280;34475;51.658;5.634;2022-11-15T02:53:00;100510;;;10.1;100.0
48680;BME280;34475;51.658;5.634;2022-11-15T02:54:00;100510;;;10.1;100.0
48680;BME280;34475;51.658;5.634;2022-11-15T02:55:00;100520;;;10.3;100.0
48680;BME280;34475;51.658;5.634;2022-11-15T02:56:00;100520;;;10.3;100.0
48680;BME280;34475;51.658;5.634;2022-11-15T02:57:02;100510;;;10.3;100.0
48680;BME280;34475;51.658;5.634;2022-11-15T02:59:07;100510;;;10.3;100.0
48680;BME280;34475;51.658;5.634;2022-11-15T03:00:08;100510;;;10.3;100.0
48680;BME280;34475;51.658;5.634;2022-11-15T03:01:02;100510;;;10.4;100.0
48680;BME280;34475;51.658;5.634;2022-11-15T03:08:17;100500;;;10.4;100.0
48680;BME280;34475;51.658;5.634;2022-11-15T03:10:18;100510;;;10.4;100.0
48680;BME280;34475;51.658;5.634;2022-11-15T03:11:03;100500;;;10.4;100.0
48680;BME280;34475;51.658;5.634;2022-11-15T03:12:02;100500;;;10.4;100.0
48680;BME280;34475;51.658;5.634;2022-11-15T03:13:07;100500;;;10.6;100.0
48680;BME280;34475;51.658;5.634;2022-11-15T03:14:19;100500;;;10.6;100.0
48680;BME280;34475;51.658;5.634;2022-11-15T03:15:01;100500;;;10.6;100.0
48680;BME280;34475;51.658;5.634;2022-11-15T03:16:04;100500;;;10.6;100.0
48680;BME280;34475;51.658;5.634;2022-11-15T03:18:02;100500;;;10.6;100.0
48680;BME280;34475;51.658;5.634;2022-11-15T03:19:02;100490;;;10.5;100.0
48680;BME280;34475;51.658;5.634;2022-11-15T03:20:00;100490;;;10.5;100.0
48680;BME280;34475;51.658;5.634;2022-11-15T03:21:00;100490;;;10.7;100.0
48680;BME280;34475;51.658;5.634;2022-11-15T03:22:00;100490;;;10.7;100.0
48680;BME280;34475;51.658;5.634;2022-11-15T03:23:01;100500;;;10.6;100.0
48680;BME280;34475;51.658;5.634;2022-11-15T03:24:01;100500;;;10.6;100.0
48680;BME280;34475;51.658;5.634;2022-11-15T03:25:02;100500;;;10.6;100.0
48680;BME280;34475;51.658;5.634;2022-11-15T03:26:00;100500;;;10.6;100.0
48680;BME280;34475;51.658;5.634;2022-11-15T03:27:00;100500;;;10.6;100.0
48680;BME280;34475;51.658;5.634;2022-11-15T03:28:00;100500;;;10.6;100.0
48680;BME280;34475;51.658;5.634;2022-11-15T03:29:03;100500;;;10.7;100.0
48680;BME280;34475;51.658;5.634;2022-11-15T03:30:00;100500;;;10.7;100.0
48680;BME280;34475;51.658;5.634;2022-11-15T03:31:00;100500;;;10.7;100.0
48680;BME280;34475;51.658;5.634;2022-11-15T03:32:01;100500;;;10.7;100.0
48680;BME280;34475;51.658;5.634;2022-11-15T03:33:00;100500;;;10.7;100.0
48680;BME280;34475;51.658;5.634;2022-11-15T03:34:00;100500;;;10.7;100.0
48680;BME280;34475;51.658;5.634;2022-11-15T03:35:17;100500;;;10.7;100.0
48680;BME280;34475;51.658;5.634;2022-11-15T03:36:00;100500;;;10.7;100.0
48680;BME280;34475;51.658;5.634;2022-11-15T03:37:00;100500;;;10.8;100.0
48680;BME280;34475;51.658;5.634;2022-11-15T03:38:17;100500;;;10.8;100.0
48680;BME280;34475;51.658;5.634;2022-11-15T03:39:02;100500;;;10.8;100.0
48680;BME280;34475;51.658;5.634;2022-11-15T03:40:00;100500;;;10.8;100.0
48680;BME280;34475;51.658;5.634;2022-11-15T03:41:00;100500;;;10.8;100.0
48680;BME280;34475;51.658;5.634;2022-11-15T03:44:03;100510;;;11.0;100.0
48680;BME280;34475;51.658;5.634;2022-11-15T03:45:16;100510;;;11.0;100.0
48680;BME280;34475;51.658;5.634;2022-11-15T03:46:02;100510;;;11.0;100.0
48680;BME280;34475;51.658;5.634;2022-11-15T03:47:09;100510;;;10.9;100.0
48680;BME280;34475;51.658;5.634;2022-11-15T03:48:10;100510;;;10.9;100.0
48680;BME280;34475;51.658;5.634;2022-11-15T03:49:07;100510;;;10.8;100.0
48680;BME280;34475;51.658;5.634;2022-11-15T03:50:01;100510;;;10.8;100.0
48680;BME280;34475;51.658;5.634;2022-11-15T03:51:00;100510;;;10.8;100.0
48680;BME280;34475;51.658;5.634;2022-11-15T03:52:00;100510;;;10.8;100.0
48680;BME280;34475;51.658;5.634;2022-11-15T03:53:00;100510;;;10.7;100.0
48680;BME280;34475;51.658;5.634;2022-11-15T03:54:02;100510;;;10.7;100.0
48680;BME280;34475;51.658;5.634;2022-11-15T03:55:00;100510;;;10.9;100.0
48680;BME280;34475;51.658;5.634;2022-11-15T03:56:00;100510;;;10.9;100.0
48680;BME280;34475;51.658;5.634;2022-11-15T03:57:00;100500;;;11.0;100.0
48680;BME280;34475;51.658;5.634;2022-11-15T03:58:00;100500;;;11.0;100.0
48680;BME280;34475;51.658;5.634;2022-11-15T03:59:00;100500;;;10.9;100.0
48680;BME280;34475;51.658;5.634;2022-11-15T04:00:00;100500;;;10.9;100.0
48680;BME280;34475;51.658;5.634;2022-11-15T04:01:00;100510;;;10.9;100.0
48680;BME280;34475;51.658;5.634;2022-11-15T04:02:00;100510;;;10.9;100.0
48680;BME280;34475;51.658;5.634;2022-11-15T04:03:00;100510;;;11.0;100.0
48680;BME280;34475;51.658;5.634;2022-11-15T04:04:00;100510;;;11.0;100.0
48680;BME280;34475;51.658;5.634;2022-11-15T04:05:00;100500;;;11.1;100.0
48680;BME280;34475;51.658;5.634;2022-11-15T04:06:00;100500;;;11.1;100.0
48680;BME280;34475;51.658;5.634;2022-11-15T04:07:00;100500;;;11.0;100.0
48680;BME280;34475;51.658;5.634;2022-11-15T04:08:00;100500;;;11.0;100.0
48680;BME280;34475;51.658;5.634;2022-11-15T04:09:00;100500;;;11.0;100.0
48680;BME280;34475;51.658;5.634;2022-11-15T04:10:00;100500;;;11.0;100.0
48680;BME280;34475;51.658;5.634;2022-11-15T04:11:00;100500;;;11.0;100.0
48680;BME280;34475;51.658;5.634;2022-11-15T04:12:00;100500;;;11.0;100.0
48680;BME280;34475;51.658;5.634;2022-11-15T04:13:01;100500;;;10.9;100.0
48680;BME280;34475;51.658;5.634;2022-11-15T04:14:00;100500;;;10.9;100.0
48680;BME280;34475;51.658;5.634;2022-11-15T04:15:02;100500;;;10.9;100.0
48680;BME280;34475;51.658;5.634;2022-11-15T04:16:00;100500;;;10.9;100.0
48680;BME280;34475;51.658;5.634;2022-11-15T04:17:00;100500;;;11.0;100.0
48680;BME280;34475;51.658;5.634;2022-11-15T04:18:00;100500;;;11.0;100.0
48680;BME280;34475;51.658;5.634;2022-11-15T04:19:00;100500;;;11.0;100.0
48680;BME280;34475;51.658;5.634;2022-11-15T04:20:00;100500;;;11.0;100.0
48680;BME280;34475;51.658;5.634;2022-11-15T04:21:00;100500;;;11.0;100.0
48680;BME280;34475;51.658;5.634;2022-11-15T04:22:00;100500;;;11.0;100.0
48680;BME280;34475;51.658;5.634;2022-11-15T04:23:00;100500;;;11.1;100.0
48680;BME280;34475;51.658;5.634;2022-11-15T04:24:00;100500;;;11.1;100.0
48680;BME280;34475;51.658;5.634;2022-11-15T04:25:00;100500;;;11.2;100.0
48680;BME280;34475;51.658;5.634;2022-11-15T04:26:01;100500;;;11.2;100.0
48680;BME280;34475;51.658;5.634;2022-11-15T04:27:00;100500;;;11.0;100.0
48680;BME280;34475;51.658;5.634;2022-11-15T04:28:00;100500;;;11.0;100.0
48680;BME280;34475;51.658;5.634;2022-11-15T04:29:00;100500;;;11.1;100.0
48680;BME280;34475;51.658;5.634;2022-11-15T04:30:00;100500;;;11.1;100.0
48680;BME280;34475;51.658;5.634;2022-11-15T04:31:00;100500;;;11.1;100.0
48680;BME280;34475;51.658;5.634;2022-11-15T04:32:00;100500;;;11.1;100.0
48680;BME280;34475;51.658;5.634;2022-11-15T04:33:00;100500;;;11.1;100.0
48680;BME280;34475;51.658;5.634;2022-11-15T04:34:00;100500;;;11.1;100.0
48680;BME280;34475;51.658;5.634;2022-11-15T04:35:00;100500;;;11.1;100.0
48680;BME280;34475;51.658;5.634;2022-11-15T04:36:00;100500;;;11.1;100.0
48680;BME280;34475;51.658;5.634;2022-11-15T04:37:00;100500;;;11.1;100.0
48680;BME280;34475;51.658;5.634;2022-11-15T04:38:00;100500;;;11.1;100.0
48680;BME280;34475;51.658;5.634;2022-11-15T04:39:00;100500;;;11.1;100.0
48680;BME280;34475;51.658;5.634;2022-11-15T04:40:00;100500;;;11.1;100.0
48680;BME280;34475;51.658;5.634;2022-11-15T04:41:00;100500;;;11.2;100.0
48680;BME280;34475;51.658;5.634;2022-11-15T04:42:00;100500;;;11.2;100.0
48680;BME280;34475;51.658;5.634;2022-11-15T04:43:00;100500;;;11.1;100.0
48680;BME280;34475;51.658;5.634;2022-11-15T04:44:00;100500;;;11.1;100.0
48680;BME280;34475;51.658;5.634;2022-11-15T04:45:00;100500;;;11.4;100.0
48680;BME280;34475;51.658;5.634;2022-11-15T04:46:00;100500;;;11.4;100.0
48680;BME280;34475;51.658;5.634;2022-11-15T04:47:00;100500;;;11.1;100.0
48680;BME280;34475;51.658;5.634;2022-11-15T04:48:00;100500;;;11.1;100.0
48680;BME280;34475;51.658;5.634;2022-11-15T04:49:00;100500;;;11.2;100.0
48680;BME280;34475;51.658;5.634;2022-11-15T04:50:00;100500;;;11.2;100.0
48680;BME280;34475;51.658;5.634;2022-11-15T04:51:00;100500;;;11.2;100.0
48680;BME280;34475;51.658;5.634;2022-11-15T04:52:00;100500;;;11.2;100.0
48680;BME280;34475;51.658;5.634;2022-11-15T04:53:00;100500;;;11.2;100.0
48680;BME280;34475;51.658;5.634;2022-11-15T04:54:00;100500;;;11.2;100.0
48680;BME280;34475;51.658;5.634;2022-11-15T04:55:00;100500;;;11.1;100.0
48680;BME280;34475;51.658;5.634;2022-11-15T04:56:00;100500;;;11.1;100.0
48680;BME280;34475;51.658;5.634;2022-11-15T04:57:00;100500;;;11.2;100.0
48680;BME280;34475;51.658;5.634;2022-11-15T04:58:00;100500;;;11.2;100.0
48680;BME280;34475;51.658;5.634;2022-11-15T04:59:00;100510;;;11.1;100.0
48680;BME280;34475;51.658;5.634;2022-11-15T05:00:00;100510;;;11.1;100.0
48680;BME280;34475;51.658;5.634;2022-11-15T05:01:15;100510;;;11.1;100.0
48680;BME280;34475;51.658;5.634;2022-11-15T05:02:00;100510;;;11.1;100.0
48680;BME280;34475;51.658;5.634;2022-11-15T05:03:00;100500;;;11.1;100.0
48680;BME280;34475;51.658;5.634;2022-11-15T05:04:00;100500;;;11.1;100.0
48680;BME280;34475;51.658;5.634;2022-11-15T05:05:00;100500;;;11.3;100.0
48680;BME280;34475;51.658;5.634;2022-11-15T05:06:00;100500;;;11.3;100.0
48680;BME280;34475;51.658;5.634;2022-11-15T05:07:00;100500;;;11.4;100.0
48680;BME280;34475;51.658;5.634;2022-11-15T05:08:00;100500;;;11.4;100.0
48680;BME280;34475;51.658;5.634;2022-11-15T05:09:00;100490;;;11.2;100.0
48680;BME280;34475;51.658;5.634;2022-11-15T05:10:00;100490;;;11.2;100.0
48680;BME280;34475;51.658;5.634;2022-11-15T05:11:00;100500;;;11.2;100.0
48680;BME280;34475;51.658;5.634;2022-11-15T05:12:00;100500;;;11.2;100.0
48680;BME280;34475;51.658;5.634;2022-11-15T05:13:00;100500;;;11.3;100.0
48680;BME280;34475;51.658;5.634;2022-11-15T05:14:00;100500;;;11.3;100.0
48680;BME280;34475;51.658;5.634;2022-11-15T05:15:00;100490;;;11.2;100.0
48680;BME280;34475;51.658;5.634;2022-11-15T05:16:00;100490;;;11.2;100.0
48680;BME280;34475;51.658;5.634;2022-11-15T05:17:00;100490;;;11.3;100.0
48680;BME280;34475;51.658;5.634;2022-11-15T05:18:00;100490;;;11.3;100.0
48680;BME280;34475;51.658;5.634;2022-11-15T05:19:00;100500;;;11.4;100.0
48680;BME280;34475;51.658;5.634;2022-11-15T05:20:00;100500;;;11.4;100.0
48680;BME280;34475;51.658;5.634;2022-11-15T05:21:03;100500;;;11.2;100.0
48680;BME280;34475;51.658;5.634;2022-11-15T05:22:00;100500;;;11.2;100.0
48680;BME280;34475;51.658;5.634;2022-11-15T05:23:00;100490;;;11.2;100.0
48680;BME280;34475;51.658;5.634;2022-11-15T05:24:00;100490;;;11.2;100.0
48680;BME280;34475;51.658;5.634;2022-11-15T05:25:00;100490;;;11.2;100.0
48680;BME280;34475;51.658;5.634;2022-11-15T05:26:00;100490;;;11.2;100.0
48680;BME280;34475;51.658;5.634;2022-11-15T05:27:00;100490;;;11.3;100.0
48680;BME280;34475;51.658;5.634;2022-11-15T05:28:00;100490;;;11.3;100.0
48680;BME280;34475;51.658;5.634;2022-11-15T05:29:00;100490;;;11.2;100.0
48680;BME280;34475;51.658;5.634;2022-11-15T05:30:00;100490;;;11.2;100.0
48680;BME280;34475;51.658;5.634;2022-11-15T05:31:01;100490;;;11.3;100.0
48680;BME280;34475;51.658;5.634;2022-11-15T05:32:00;100490;;;11.3;100.0
48680;BME280;34475;51.658;5.634;2022-11-15T05:33:00;100490;;;11.1;100.0
48680;BME280;34475;51.658;5.634;2022-11-15T05:34:00;100490;;;11.1;100.0
48680;BME280;34475;51.658;5.634;2022-11-15T05:35:00;100490;;;11.3;100.0
48680;BME280;34475;51.658;5.634;2022-11-15T05:36:00;100490;;;11.3;100.0
48680;BME280;34475;51.658;5.634;2022-11-15T05:37:00;100490;;;11.1;100.0
48680;BME280;34475;51.658;5.634;2022-11-15T05:38:00;100490;;;11.1;100.0
48680;BME280;34475;51.658;5.634;2022-11-15T05:39:00;100490;;;11.2;100.0
48680;BME280;34475;51.658;5.634;2022-11-15T05:40:00;100490;;;11.2;100.0
48680;BME280;34475;51.658;5.634;2022-11-15T05:41:00;100480;;;11.3;100.0
48680;BME280;34475;51.658;5.634;2022-11-15T05:42:02;100480;;;11.3;100.0
48680;BME280;34475;51.658;5.634;2022-11-15T05:43:00;100490;;;11.2;100.0
48680;BME280;34475;51.658;5.634;2022-11-15T05:44:00;100490;;;11.2;100.0
48680;BME280;34475;51.658;5.634;2022-11-15T05:45:00;100480;;;11.3;100.0
48680;BME280;34475;51.658;5.634;2022-11-15T05:46:00;100480;;;11.3;100.0
48680;BME280;34475;51.658;5.634;2022-11-15T05:47:00;100490;;;11.1;100.0
48680;BME280;34475;51.658;5.634;2022-11-15T05:48:00;100490;;;11.1;100.0
48680;BME280;34475;51.658;5.634;2022-11-15T05:49:00;100490;;;11.2;100.0
48680;BME280;34475;51.658;5.634;2022-11-15T05:50:00;100490;;;11.2;100.0
48680;BME280;34475;51.658;5.634;2022-11-15T05:51:00;100480;;;11.2;100.0
48680;BME280;34475;51.658;5.634;2022-11-15T05:52:00;100480;;;11.2;100.0
48680;BME280;34475;51.658;5.634;2022-11-15T05:53:00;100480;;;11.2;100.0
48680;BME280;34475;51.658;5.634;2022-11-15T05:54:00;100480;;;11.2;100.0